Time;durP1;ratioP1;P1;durP2;ratioP2;P2;SDS_P1;SDS_P2;PMS_P1;PMS_P2;Temp;Humidity;BMP_temperature;BMP_pressure;BME280_temperature;BME280_humidity;BME280_pressure;Samples;Min_cycle;Max_cycle;Signal;HPM_P1;HPM_P2
2021/11/15 00:01:44;;;;;;;1.60;1.25;;;;;;;;;;6233078;23;20092;-71
2021/11/15 00:04:15;;;;;;;5.07;1.80;;;;;;;;;;6235129;23;20127;-71
2021/11/15 00:06:41;;;;;;;2.47;1.17;;;;;;;;;;6234582;23;20002;-71
2021/11/15 00:09:08;;;;;;;2.83;1.90;;;;;;;;;;6237878;23;20434;-70
2021/11/15 00:11:35;;;;;;;2.72;1.20;;;;;;;;;;6235601;23;20004;-70
2021/11/15 00:14:01;;;;;;;5.68;1.30;;;;;;;;;;6239779;23;20007;-70
2021/11/15 00:16:27;;;;;;;2.22;1.15;;;;;;;;;;6235651;23;20050;-73
2021/11/15 00:18:54;;;;;;;2.33;1.52;;;;;;;;;;6238171;23;20515;-72
2021/11/15 00:21:20;;;;;;;3.60;1.40;;;;;;;;;;6239538;23;20444;-74
2021/11/15 00:23:46;;;;;;;2.13;1.23;;;;;;;;;;6239006;23;20011;-74
2021/11/15 00:26:12;;;;;;;1.73;1.08;;;;;;;;;;6237976;23;20043;-71
2021/11/15 00:28:38;;;;;;;2.30;1.30;;;;;;;;;;6239366;23;20484;-72
2021/11/15 00:31:05;;;;;;;2.00;1.20;;;;;;;;;;6239610;23;20003;-74
2021/11/15 00:33:31;;;;;;;5.45;1.65;;;;;;;;;;6240402;23;20506;-74
2021/11/15 00:35:57;;;;;;;4.68;1.52;;;;;;;;;;6239547;23;20083;-71
2021/11/15 00:38:23;;;;;;;2.67;1.10;;;;;;;;;;6238605;23;20022;-71
2021/11/15 00:40:50;;;;;;;3.33;1.05;;;;;;;;;;6210977;23;20505;-74
2021/11/15 00:43:16;;;;;;;3.97;1.20;;;;;;;;;;6239428;23;20004;-71
2021/11/15 00:45:42;;;;;;;2.03;1.00;;;;;;;;;;6239518;23;19996;-73
2021/11/15 00:48:09;;;;;;;1.80;1.10;;;;;;;;;;6239743;23;20031;-74
2021/11/15 00:50:36;;;;;;;2.63;1.17;;;;;;;;;;6212976;23;20514;-72
2021/11/15 00:53:02;;;;;;;5.00;1.30;;;;;;;;;;6237714;23;20019;-73
2021/11/15 00:55:28;;;;;;;5.15;1.70;;;;;;;;;;6239523;23;20435;-70
2021/11/15 00:57:55;;;;;;;3.78;1.42;;;;;;;;;;6239262;23;20302;-72
2021/11/15 01:00:24;;;;;;;3.13;1.48;;;;;;;;;;6239702;23;20000;-71
2021/11/15 01:02:50;;;;;;;2.70;1.45;;;;;;;;;;6239457;23;20308;-73
2021/11/15 01:05:16;;;;;;;5.78;1.40;;;;;;;;;;6240352;23;20000;-74
2021/11/15 01:07:43;;;;;;;1.48;1.08;;;;;;;;;;6236869;23;20003;-73
2021/11/15 01:10:10;;;;;;;3.58;1.40;;;;;;;;;;6240316;23;20109;-71
2021/11/15 01:12:37;;;;;;;2.15;1.27;;;;;;;;;;6239425;23;19996;-71
2021/11/15 01:15:04;;;;;;;1.75;1.13;;;;;;;;;;6239795;23;20005;-74
2021/11/15 01:17:30;;;;;;;4.28;1.38;;;;;;;;;;6212702;23;20020;-74
2021/11/15 01:19:56;;;;;;;2.50;1.20;;;;;;;;;;6240004;23;20012;-72
2021/11/15 01:22:23;;;;;;;3.05;1.10;;;;;;;;;;6237885;23;20126;-73
2021/11/15 01:24:49;;;;;;;3.20;1.23;;;;;;;;;;6239352;23;20000;-71
2021/11/15 01:27:15;;;;;;;8.07;1.42;;;;;;;;;;6239446;23;20011;-72
2021/11/15 01:29:41;;;;;;;2.45;1.15;;;;;;;;;;6239873;23;20194;-72
2021/11/15 01:32:07;;;;;;;5.25;1.73;;;;;;;;;;6239337;23;20004;-71
2021/11/15 01:34:34;;;;;;;1.73;1.13;;;;;;;;;;6237856;23;20108;-74
2021/11/15 01:37:00;;;;;;;4.25;1.55;;;;;;;;;;6238112;23;20004;-72
2021/11/15 01:39:26;;;;;;;2.58;1.20;;;;;;;;;;6239682;23;20012;-73
2021/11/15 01:41:53;;;;;;;3.88;1.35;;;;;;;;;;6239241;23;20004;-70
2021/11/15 01:44:19;;;;;;;3.88;1.23;;;;;;;;;;6239839;23;20012;-71
2021/11/15 01:46:45;;;;;;;2.50;1.27;;;;;;;;;;6237397;23;20011;-71
2021/11/15 01:49:11;;;;;;;3.17;1.25;;;;;;;;;;6239429;23;20000;-71
2021/11/15 01:51:37;;;;;;;2.45;1.38;;;;;;;;;;6239363;23;20004;-72
2021/11/15 01:54:04;;;;;;;2.85;1.13;;;;;;;;;;6239280;23;19996;-71
2021/11/15 01:56:30;;;;;;;5.47;1.70;;;;;;;;;;6239455;23;20004;-71
2021/11/15 01:58:56;;;;;;;5.38;1.83;;;;;;;;;;6237518;23;20487;-72
2021/11/15 02:01:22;;;;;;;5.93;1.48;;;;;;;;;;6239568;23;20038;-73
2021/11/15 02:03:49;;;;;;;5.47;1.70;;;;;;;;;;6239236;23;20022;-72
2021/11/15 02:06:15;;;;;;;2.10;1.55;;;;;;;;;;6239217;23;20487;-73
2021/11/15 02:08:41;;;;;;;3.45;1.75;;;;;;;;;;6238291;23;19996;-71
2021/11/15 02:11:07;;;;;;;3.60;1.40;;;;;;;;;;6236837;23;20054;-71
2021/11/15 02:13:34;;;;;;;5.85;2.03;;;;;;;;;;6239362;23;20007;-70
2021/11/15 02:16:00;;;;;;;4.68;1.80;;;;;;;;;;6239521;23;19993;-74
2021/11/15 02:18:26;;;;;;;1.98;1.45;;;;;;;;;;6238966;23;20031;-74
2021/11/15 02:21:19;;;;;;;3.05;1.33;;;;;;;;;;6238950;23;20058;-71
2021/11/15 02:23:45;;;;;;;4.85;1.73;;;;;;;;;;6234216;23;20004;-73
2021/11/15 02:26:13;;;;;;;3.88;1.42;;;;;;;;;;6237075;23;20030;-71
2021/11/15 02:28:41;;;;;;;7.00;1.40;;;;;;;;;;6238998;23;20030;-70
2021/11/15 02:31:08;;;;;;;2.58;1.40;;;;;;;;;;6238736;23;20075;-71
2021/11/15 02:33:35;;;;;;;3.60;1.35;;;;;;;;;;6239052;23;20425;-71
2021/11/15 02:36:02;;;;;;;4.03;1.50;;;;;;;;;;6237504;23;20062;-73
2021/11/15 02:38:29;;;;;;;2.28;1.42;;;;;;;;;;6237653;23;20383;-73
2021/11/15 02:40:55;;;;;;;6.60;1.60;;;;;;;;;;6238854;23;20047;-74
2021/11/15 02:43:21;;;;;;;6.80;1.65;;;;;;;;;;6236918;23;20107;-73
2021/11/15 02:45:48;;;;;;;3.97;1.48;;;;;;;;;;6238902;23;20001;-73
2021/11/15 02:48:15;;;;;;;3.17;1.20;;;;;;;;;;6238858;23;20091;-74
2021/11/15 02:50:41;;;;;;;2.28;1.10;;;;;;;;;;6238864;23;20079;-74
2021/11/15 02:53:09;;;;;;;3.05;1.38;;;;;;;;;;6237018;23;20000;-73
2021/11/15 02:55:35;;;;;;;2.30;1.35;;;;;;;;;;6238807;23;20543;-72
2021/11/15 02:58:04;;;;;;;3.72;1.00;;;;;;;;;;6238590;23;20004;-71
2021/11/15 03:00:34;;;;;;;4.03;1.50;;;;;;;;;;6239614;23;20061;-73
2021/11/15 03:03:00;;;;;;;5.78;1.98;;;;;;;;;;6236982;23;20007;-73
2021/11/15 03:05:27;;;;;;;3.80;1.25;;;;;;;;;;6238750;23;20008;-73
2021/11/15 03:07:54;;;;;;;2.33;1.55;;;;;;;;;;6237934;23;20436;-74
2021/11/15 03:10:22;;;;;;;2.03;1.30;;;;;;;;;;6238817;23;20082;-73
2021/11/15 03:12:48;;;;;;;2.40;1.30;;;;;;;;;;6238482;23;20047;-71
2021/11/15 03:15:21;;;;;;;2.58;1.17;;;;;;;;;;6236927;23;20004;-73
2021/11/15 03:17:58;;;;;;;4.22;1.30;;;;;;;;;;6238207;23;20016;-73
2021/11/15 03:20:26;;;;;;;2.17;1.58;;;;;;;;;;6238473;23;20432;-71
2021/11/15 03:22:52;;;;;;;4.30;1.38;;;;;;;;;;6238758;23;20331;-72
2021/11/15 03:25:19;;;;;;;1.98;1.25;;;;;;;;;;6236763;23;20031;-74
2021/11/15 03:27:45;;;;;;;2.97;1.27;;;;;;;;;;6238613;23;19996;-70
2021/11/15 03:30:11;;;;;;;2.60;1.38;;;;;;;;;;6211650;23;20397;-74
2021/11/15 03:32:39;;;;;;;3.15;1.70;;;;;;;;;;6238239;23;20067;-71
2021/11/15 03:35:05;;;;;;;2.85;1.20;;;;;;;;;;6238684;23;20054;-72
2021/11/15 03:37:32;;;;;;;2.45;1.23;;;;;;;;;;6236845;23;19996;-74
2021/11/15 03:39:58;;;;;;;2.17;1.30;;;;;;;;;;6236684;23;20000;-71
2021/11/15 03:42:25;;;;;;;4.38;1.38;;;;;;;;;;6238150;23;20007;-73
2021/11/15 03:44:52;;;;;;;4.53;1.92;;;;;;;;;;6238327;23;20007;-72
2021/11/15 03:47:18;;;;;;;3.10;1.30;;;;;;;;;;6237487;23;20398;-71
2021/11/15 03:49:45;;;;;;;2.22;1.20;;;;;;;;;;6240754;23;20095;-71
2021/11/15 03:52:11;;;;;;;4.22;1.48;;;;;;;;;;6240066;23;20409;-71
2021/11/15 03:54:37;;;;;;;4.38;1.50;;;;;;;;;;6240641;23;20027;-73
2021/11/15 03:57:03;;;;;;;9.88;1.58;;;;;;;;;;6240494;23;19999;-74
2021/11/15 03:59:29;;;;;;;3.60;1.30;;;;;;;;;;6238956;23;20539;-71
2021/11/15 04:01:56;;;;;;;4.50;1.52;;;;;;;;;;6237468;23;20000;-73
2021/11/15 04:04:27;;;;;;;2.30;1.55;;;;;;;;;;6207457;23;20337;-73
2021/11/15 04:06:54;;;;;;;4.25;1.58;;;;;;;;;;6232968;23;20008;-74
2021/11/15 04:09:20;;;;;;;3.08;1.58;;;;;;;;;;6234714;23;20011;-74
2021/11/15 04:11:47;;;;;;;3.92;1.30;;;;;;;;;;6232513;23;20008;-70
2021/11/15 04:14:15;;;;;;;3.97;1.80;;;;;;;;;;6234245;23;20000;-71
2021/11/15 04:16:43;;;;;;;3.47;1.70;;;;;;;;;;6234204;23;20011;-72
2021/11/15 04:19:14;;;;;;;3.78;1.75;;;;;;;;;;6234612;23;20015;-72
2021/11/15 04:21:41;;;;;;;2.88;1.77;;;;;;;;;;6234336;23;20490;-71
2021/11/15 04:24:07;;;;;;;2.22;1.30;;;;;;;;;;6232369;23;20031;-71
2021/11/15 04:26:34;;;;;;;5.47;1.50;;;;;;;;;;6234180;23;20085;-74
2021/11/15 04:29:01;;;;;;;3.03;1.30;;;;;;;;;;6234053;23;20035;-73
2021/11/15 04:31:27;;;;;;;2.53;1.30;;;;;;;;;;6207896;23;20485;-74
2021/11/15 04:33:53;;;;;;;6.32;2.33;;;;;;;;;;6233876;23;20024;-71
2021/11/15 04:36:20;;;;;;;8.30;1.85;;;;;;;;;;6234473;23;20000;-72
2021/11/15 04:38:46;;;;;;;3.50;1.70;;;;;;;;;;6231448;23;20451;-73
2021/11/15 04:41:12;;;;;;;3.33;1.48;;;;;;;;;;6234008;23;20000;-73
2021/11/15 04:43:39;;;;;;;6.93;1.80;;;;;;;;;;6234589;23;20015;-74
2021/11/15 04:46:05;;;;;;;3.63;1.65;;;;;;;;;;6234516;23;20467;-73
2021/11/15 04:48:31;;;;;;;3.72;1.45;;;;;;;;;;6232038;23;20092;-73
2021/11/15 04:50:58;;;;;;;2.58;1.30;;;;;;;;;;6234443;23;20000;-73
2021/11/15 04:53:24;;;;;;;4.93;1.55;;;;;;;;;;6231491;23;20000;-73
2021/11/15 04:55:51;;;;;;;6.85;1.60;;;;;;;;;;6230993;23;20012;-74
2021/11/15 04:58:17;;;;;;;3.72;1.60;;;;;;;;;;6230499;23;20004;-74
2021/11/15 05:00:43;;;;;;;2.03;1.45;;;;;;;;;;6228534;23;20441;-74
2021/11/15 05:03:09;;;;;;;3.30;1.45;;;;;;;;;;6230102;23;19996;-72
2021/11/15 05:05:36;;;;;;;2.17;1.35;;;;;;;;;;6227701;23;20012;-73
2021/11/15 05:08:02;;;;;;;5.20;1.63;;;;;;;;;;6230104;23;20000;-75
2021/11/15 05:10:30;;;;;;;1.92;1.30;;;;;;;;;;6228688;23;20008;-73
2021/11/15 05:12:56;;;;;;;2.38;1.38;;;;;;;;;;6203077;23;20078;-74
2021/11/15 05:15:23;;;;;;;4.55;1.48;;;;;;;;;;6230437;23;20000;-73
2021/11/15 05:17:50;;;;;;;6.68;1.63;;;;;;;;;;6202756;23;20039;-72
2021/11/15 05:20:16;;;;;;;2.42;1.30;;;;;;;;;;6228206;23;20102;-74
2021/11/15 05:22:43;;;;;;;2.38;1.33;;;;;;;;;;6229822;23;20000;-73
2021/11/15 05:25:09;;;;;;;3.30;1.38;;;;;;;;;;6231058;23;20012;-72
2021/11/15 05:27:36;;;;;;;3.17;1.65;;;;;;;;;;6230340;23;20054;-75
2021/11/15 05:30:03;;;;;;;4.78;1.60;;;;;;;;;;6229068;23;20488;-75
2021/11/15 05:32:30;;;;;;;2.55;1.38;;;;;;;;;;6228278;23;20142;-75
2021/11/15 05:34:57;;;;;;;1.73;1.35;;;;;;;;;;6230496;23;20008;-72
2021/11/15 05:37:23;;;;;;;3.72;1.52;;;;;;;;;;6228199;23;20008;-73
2021/11/15 05:39:50;;;;;;;5.70;1.55;;;;;;;;;;6228612;23;20079;-74
2021/11/15 05:42:16;;;;;;;4.22;1.50;;;;;;;;;;6229000;23;20325;-73
2021/11/15 05:44:42;;;;;;;2.17;1.33;;;;;;;;;;6229782;23;20012;-74
2021/11/15 05:47:08;;;;;;;2.45;1.83;;;;;;;;;;6229799;23;20000;-74
2021/11/15 05:49:35;;;;;;;4.93;1.50;;;;;;;;;;6228412;23;20007;-75
2021/11/15 05:52:01;;;;;;;2.85;1.40;;;;;;;;;;6226268;23;20312;-72
2021/11/15 05:54:27;;;;;;;3.13;1.52;;;;;;;;;;6228976;23;20095;-73
2021/11/15 05:56:53;;;;;;;3.65;1.40;;;;;;;;;;6229909;23;20368;-74
2021/11/15 05:59:20;;;;;;;3.58;1.80;;;;;;;;;;6229901;23;20047;-73
2021/11/15 06:01:46;;;;;;;1.70;1.48;;;;;;;;;;6228323;23;20004;-73
2021/11/15 06:04:12;;;;;;;2.88;1.63;;;;;;;;;;6227957;23;20034;-75
2021/11/15 06:06:38;;;;;;;4.35;1.55;;;;;;;;;;6229675;23;20533;-76
2021/11/15 06:09:05;;;;;;;4.53;1.90;;;;;;;;;;6229589;23;20004;-78
2021/11/15 06:11:31;;;;;;;4.03;1.85;;;;;;;;;;6230459;23;20086;-74
2021/11/15 06:13:57;;;;;;;5.13;2.53;;;;;;;;;;6230566;23;20043;-81
2021/11/15 06:16:24;;;;;;;4.03;2.20;;;;;;;;;;6228769;23;20004;-72
2021/11/15 06:18:50;;;;;;;3.45;1.67;;;;;;;;;;6229542;23;20020;-79
2021/11/15 06:21:16;;;;;;;3.97;2.03;;;;;;;;;;6230029;23;20525;-77
2021/11/15 06:23:43;;;;;;;3.58;1.70;;;;;;;;;;6229420;23;20436;-78
2021/11/15 06:26:09;;;;;;;1.92;1.60;;;;;;;;;;6229572;23;20000;-69
2021/11/15 06:28:35;;;;;;;2.55;2.00;;;;;;;;;;6227848;23;20011;-75
2021/11/15 06:31:02;;;;;;;3.85;1.70;;;;;;;;;;6229638;23;20000;-77
2021/11/15 06:33:28;;;;;;;5.43;1.77;;;;;;;;;;6229791;23;20005;-73
2021/11/15 06:35:55;;;;;;;3.67;1.90;;;;;;;;;;6229583;23;20004;-76
2021/11/15 06:38:21;;;;;;;4.35;1.80;;;;;;;;;;6226484;23;20004;-76
2021/11/15 06:40:47;;;;;;;4.90;1.70;;;;;;;;;;6228994;23;20489;-82
2021/11/15 06:43:13;;;;;;;3.72;1.75;;;;;;;;;;6229719;23;20427;-73
2021/11/15 06:45:39;;;;;;;2.28;1.40;;;;;;;;;;6230319;23;20365;-81
2021/11/15 06:48:05;;;;;;;3.13;1.77;;;;;;;;;;6228630;23;20000;-81
2021/11/15 06:50:31;;;;;;;4.60;2.33;;;;;;;;;;6229813;23;20015;-75
2021/11/15 06:52:58;;;;;;;3.50;1.77;;;;;;;;;;6229564;23;20000;-74
2021/11/15 06:55:25;;;;;;;3.20;1.40;;;;;;;;;;6230824;23;20324;-73
2021/11/15 06:57:52;;;;;;;2.22;1.60;;;;;;;;;;6230304;23;20011;-70
2021/11/15 07:00:21;;;;;;;3.38;1.80;;;;;;;;;;6227396;23;20008;-72
2021/11/15 07:02:49;;;;;;;3.88;1.70;;;;;;;;;;6202957;23;20015;-72
2021/11/15 07:05:15;;;;;;;2.95;2.10;;;;;;;;;;6226549;23;20012;-73
2021/11/15 07:07:42;;;;;;;4.13;2.10;;;;;;;;;;6229041;23;20054;-69
2021/11/15 07:10:09;;;;;;;4.70;2.03;;;;;;;;;;6228177;23;20388;-79
2021/11/15 07:12:36;;;;;;;5.80;1.77;;;;;;;;;;6229254;23;20321;-78
2021/11/15 07:15:03;;;;;;;3.20;1.75;;;;;;;;;;6230108;23;20079;-74
2021/11/15 07:17:29;;;;;;;3.25;1.98;;;;;;;;;;6229075;23;20016;-70
2021/11/15 07:19:55;;;;;;;5.28;2.30;;;;;;;;;;6229560;23;20015;-71
2021/11/15 07:22:22;;;;;;;2.90;2.05;;;;;;;;;;6229151;23;20582;-72
2021/11/15 07:24:48;;;;;;;3.40;2.20;;;;;;;;;;6227485;23;20492;-79
2021/11/15 07:27:15;;;;;;;5.30;2.50;;;;;;;;;;6229576;23;20373;-80
2021/11/15 07:29:41;;;;;;;5.80;2.80;;;;;;;;;;6229934;23;20011;-81
2021/11/15 07:32:12;;;;;;;6.53;2.75;;;;;;;;;;6229652;23;20000;-72
2021/11/15 07:34:39;;;;;;;4.50;2.70;;;;;;;;;;6227610;23;20000;-78
2021/11/15 07:37:05;;;;;;;4.15;2.22;;;;;;;;;;6228399;23;20503;-73
2021/11/15 07:39:37;;;;;;;8.13;3.10;;;;;;;;;;6229711;23;20095;-70
2021/11/15 07:42:04;;;;;;;6.55;2.95;;;;;;;;;;6227325;23;20004;-76
2021/11/15 07:44:30;;;;;;;6.50;2.78;;;;;;;;;;6229272;23;19996;-74
2021/11/15 07:46:56;;;;;;;5.18;2.88;;;;;;;;;;6229427;23;20004;-74
2021/11/15 07:49:22;;;;;;;7.63;3.47;;;;;;;;;;6229686;23;20005;-73
2021/11/15 07:51:48;;;;;;;10.38;3.53;;;;;;;;;;6229482;23;20499;-78
2021/11/15 07:54:15;;;;;;;6.47;3.65;;;;;;;;;;6227186;23;20035;-73
2021/11/15 07:56:41;;;;;;;13.52;4.00;;;;;;;;;;6230244;23;20324;-77
2021/11/15 07:59:07;;;;;;;7.68;4.10;;;;;;;;;;6234662;23;20448;-79
2021/11/15 08:01:33;;;;;;;8.57;5.03;;;;;;;;;;6232394;23;20570;-79
2021/11/15 08:04:00;;;;;;;7.18;3.97;;;;;;;;;;6230208;23;20005;-69
2021/11/15 08:06:26;;;;;;;4.57;3.33;;;;;;;;;;6229923;23;20004;-68
2021/11/15 08:08:52;;;;;;;9.25;4.68;;;;;;;;;;6201975;23;20015;-70
2021/11/15 08:11:19;;;;;;;5.53;3.90;;;;;;;;;;6204578;23;20004;-69
2021/11/15 08:13:46;;;;;;;12.77;4.05;;;;;;;;;;6231250;23;20000;-68
2021/11/15 08:16:12;;;;;;;6.45;4.00;;;;;;;;;;6231482;23;20000;-68
2021/11/15 08:18:40;;;;;;;6.88;4.55;;;;;;;;;;6230870;23;20103;-71
2021/11/15 08:21:12;;;;;;;7.40;4.88;;;;;;;;;;6230202;23;20004;-68
2021/11/15 08:23:40;;;;;;;6.13;4.97;;;;;;;;;;6231790;23;20008;-68
2021/11/15 08:26:26;;;;;;;10.07;5.50;;;;;;;;;;6232214;23;19992;-67
2021/11/15 08:28:53;;;;;;;10.82;5.55;;;;;;;;;;6230022;23;20008;-69
2021/11/15 08:31:19;;;;;;;6.25;4.78;;;;;;;;;;6231607;23;20004;-68
2021/11/15 08:33:45;;;;;;;6.60;5.20;;;;;;;;;;6232566;23;20008;-68
2021/11/15 08:36:12;;;;;;;12.27;5.90;;;;;;;;;;6233368;23;20042;-70
2021/11/15 08:38:50;;;;;;;10.30;6.95;;;;;;;;;;6232048;23;20008;-68
2021/11/15 08:41:18;;;;;;;19.17;13.05;;;;;;;;;;6231646;23;20621;-68
2021/11/15 08:43:44;;;;;;;33.60;21.77;;;;;;;;;;6233089;23;20004;-68
2021/11/15 08:46:15;;;;;;;21.67;11.13;;;;;;;;;;6233155;23;20050;-69
2021/11/15 08:48:42;;;;;;;10.63;6.75;;;;;;;;;;6230935;23;20001;-69
2021/11/15 08:51:10;;;;;;;8.80;5.38;;;;;;;;;;6232543;23;20004;-68
2021/11/15 08:53:37;;;;;;;8.30;5.03;;;;;;;;;;6232709;23;20000;-68
2021/11/15 08:56:04;;;;;;;7.90;5.47;;;;;;;;;;6233610;23;20004;-68
2021/11/15 08:58:30;;;;;;;8.77;5.03;;;;;;;;;;6232975;23;20039;-68
2021/11/15 09:00:57;;;;;;;8.30;4.18;;;;;;;;;;6233255;23;20341;-68
2021/11/15 09:03:23;;;;;;;11.38;6.55;;;;;;;;;;6231653;23;20615;-69
2021/11/15 09:05:50;;;;;;;9.27;6.75;;;;;;;;;;6232910;23;20055;-69
2021/11/15 09:08:20;;;;;;;10.02;8.13;;;;;;;;;;6232462;23;20046;-68
2021/11/15 09:10:46;;;;;;;10.43;9.30;;;;;;;;;;6231643;23;20443;-71
2021/11/15 09:13:13;;;;;;;10.65;8.32;;;;;;;;;;6233401;23;20003;-68
2021/11/15 09:15:39;;;;;;;13.43;9.13;;;;;;;;;;6233168;23;20079;-69
2021/11/15 09:18:05;;;;;;;16.15;11.57;;;;;;;;;;6232561;23;20050;-68
2021/11/15 09:20:32;;;;;;;17.02;13.10;;;;;;;;;;6233457;23;20370;-68
2021/11/15 09:22:58;;;;;;;19.83;13.65;;;;;;;;;;6231510;23;20006;-70
2021/11/15 09:25:24;;;;;;;28.17;19.58;;;;;;;;;;6233282;23;20075;-68
2021/11/15 09:27:50;;;;;;;29.80;21.02;;;;;;;;;;6232896;23;20006;-68
2021/11/15 09:30:17;;;;;;;26.23;19.13;;;;;;;;;;6233037;23;20762;-69
2021/11/15 09:32:43;;;;;;;20.77;13.60;;;;;;;;;;6231558;23;20035;-68
2021/11/15 09:35:09;;;;;;;13.98;11.27;;;;;;;;;;6232473;23;20382;-68
2021/11/15 09:37:36;;;;;;;12.20;9.38;;;;;;;;;;6232106;23;20010;-68
2021/11/15 09:40:04;;;;;;;11.13;7.95;;;;;;;;;;6206282;23;20466;-68
2021/11/15 09:42:30;;;;;;;9.30;6.65;;;;;;;;;;6230697;23;20075;-69
2021/11/15 09:44:57;;;;;;;11.15;8.13;;;;;;;;;;6232405;23;20005;-68
2021/11/15 09:47:23;;;;;;;5.22;3.95;;;;;;;;;;6232977;23;20424;-68
2021/11/15 09:49:50;;;;;;;4.63;3.17;;;;;;;;;;6232359;23;20061;-68
2021/11/15 09:52:16;;;;;;;4.80;3.20;;;;;;;;;;6229725;23;20031;-70
2021/11/15 09:54:44;;;;;;;9.93;6.38;;;;;;;;;;6232075;23;20004;-69
2021/11/15 09:57:12;;;;;;;5.35;2.88;;;;;;;;;;6230369;23;20023;-70
2021/11/15 09:59:38;;;;;;;3.70;1.90;;;;;;;;;;6232071;23;20056;-69
2021/11/15 10:02:05;;;;;;;3.83;2.30;;;;;;;;;;6230120;23;20369;-68
2021/11/15 10:04:31;;;;;;;5.40;2.63;;;;;;;;;;6231984;23;20003;-68
2021/11/15 10:06:57;;;;;;;4.95;2.70;;;;;;;;;;6232167;23;20155;-68
2021/11/15 10:09:26;;;;;;;4.20;2.90;;;;;;;;;;6232390;23;20034;-69
2021/11/15 10:11:53;;;;;;;4.40;2.30;;;;;;;;;;6232303;23;20032;-69
2021/11/15 10:14:20;;;;;;;7.97;7.22;;;;;;;;;;6231130;23;20008;-68
2021/11/15 10:16:51;;;;;;;11.63;10.20;;;;;;;;;;6231722;23;20015;-70
2021/11/15 10:19:20;;;;;;;5.10;3.22;;;;;;;;;;6231702;23;20498;-68
2021/11/15 10:21:57;;;;;;;2.97;1.88;;;;;;;;;;6230430;23;19996;-68
2021/11/15 10:24:34;;;;;;;5.05;2.25;;;;;;;;;;6232548;23;20015;-69
2021/11/15 10:27:06;;;;;;;2.88;1.40;;;;;;;;;;6232084;23;20575;-69
2021/11/15 10:29:35;;;;;;;4.18;1.58;;;;;;;;;;6232898;23;20023;-68
2021/11/15 10:32:06;;;;;;;7.20;2.10;;;;;;;;;;6230755;23;20011;-67
2021/11/15 10:34:34;;;;;;;2.83;1.45;;;;;;;;;;6232680;23;20083;-68
2021/11/15 10:37:18;;;;;;;6.75;4.32;;;;;;;;;;6231259;23;20000;-68
2021/11/15 10:39:49;;;;;;;3.53;2.38;;;;;;;;;;6231658;23;20020;-68
2021/11/15 10:42:17;;;;;;;4.63;1.70;;;;;;;;;;6232269;23;20007;-68
2021/11/15 10:44:46;;;;;;;4.13;1.70;;;;;;;;;;6232379;23;20004;-68
2021/11/15 10:47:13;;;;;;;4.18;1.90;;;;;;;;;;6230825;23;20004;-68
2021/11/15 10:49:39;;;;;;;4.78;2.00;;;;;;;;;;6232144;23;20015;-69
2021/11/15 10:52:10;;;;;;;42.13;28.98;;;;;;;;;;6232571;23;20001;-68
2021/11/15 10:55:03;;;;;;;38.10;31.00;;;;;;;;;;6230812;23;20007;-68
2021/11/15 10:57:29;;;;;;;7.60;2.47;;;;;;;;;;6232816;23;20004;-68
2021/11/15 11:00:07;;;;;;;3.22;2.20;;;;;;;;;;6231723;23;20012;-68
2021/11/15 11:02:34;;;;;;;7.40;2.22;;;;;;;;;;6231802;23;20006;-68
2021/11/15 11:05:08;;;;;;;7.22;4.40;;;;;;;;;;6229449;23;20004;-68
2021/11/15 11:07:35;;;;;;;5.25;2.80;;;;;;;;;;6230790;23;20042;-68
2021/11/15 11:10:05;;;;;;;7.25;2.63;;;;;;;;;;6230890;23;20476;-68
2021/11/15 11:12:39;;;;;;;6.97;4.53;;;;;;;;;;6232123;23;20000;-69
2021/11/15 11:15:43;;;;;;;5.13;2.75;;;;;;;;;;6230528;23;20050;-70
2021/11/15 11:18:35;;;;;;;5.35;3.30;;;;;;;;;;6230907;23;20016;-68
2021/11/15 11:21:27;;;;;;;4.13;2.65;;;;;;;;;;6231374;23;20011;-68
2021/11/15 11:24:13;;;;;;;5.80;3.03;;;;;;;;;;6230674;23;19996;-68
2021/11/15 11:26:41;;;;;;;6.68;3.08;;;;;;;;;;6229626;23;20004;-68
2021/11/15 11:29:16;;;;;;;8.02;3.58;;;;;;;;;;6231401;23;20329;-67
2021/11/15 11:31:44;;;;;;;7.30;4.35;;;;;;;;;;6231669;23;20008;-68
2021/11/15 11:34:11;;;;;;;3.45;2.63;;;;;;;;;;6231956;23;20008;-68
2021/11/15 11:36:38;;;;;;;6.07;3.13;;;;;;;;;;6230233;23;20032;-68
2021/11/15 11:39:09;;;;;;;3.33;2.40;;;;;;;;;;6230694;23;20097;-68
2021/11/15 11:41:43;;;;;;;7.40;3.15;;;;;;;;;;6230588;23;20003;-68
2021/11/15 11:44:11;;;;;;;8.55;4.22;;;;;;;;;;6231202;23;20005;-67
2021/11/15 11:46:37;;;;;;;5.28;4.38;;;;;;;;;;6231116;23;20652;-69
2021/11/15 11:49:06;;;;;;;7.35;2.78;;;;;;;;;;6229382;23;20008;-68
2021/11/15 11:51:32;;;;;;;5.85;2.00;;;;;;;;;;6230731;23;20012;-68
2021/11/15 11:54:09;;;;;;;5.03;2.33;;;;;;;;;;6229170;23;20439;-69
2021/11/15 11:56:36;;;;;;;5.03;2.47;;;;;;;;;;6226818;23;19996;-68
2021/11/15 11:59:13;;;;;;;8.45;3.65;;;;;;;;;;6228323;23;20004;-68
2021/11/15 12:01:39;;;;;;;4.57;2.50;;;;;;;;;;6200852;23;20014;-68
2021/11/15 12:04:19;;;;;;;3.75;2.03;;;;;;;;;;6228911;23;20036;-68
2021/11/15 12:06:46;;;;;;;6.10;2.65;;;;;;;;;;6225394;23;20620;-68
2021/11/15 12:09:12;;;;;;;3.97;2.50;;;;;;;;;;6229167;23;20028;-68
2021/11/15 12:11:40;;;;;;;5.55;2.30;;;;;;;;;;6228448;23;19996;-68
2021/11/15 12:14:07;;;;;;;3.88;2.17;;;;;;;;;;6228774;23;20008;-68
2021/11/15 12:16:52;;;;;;;5.05;3.22;;;;;;;;;;6228125;23;20087;-69
2021/11/15 12:19:22;;;;;;;5.40;4.90;;;;;;;;;;6228991;23;20043;-69
2021/11/15 12:21:48;;;;;;;20.63;17.85;;;;;;;;;;6228976;23;20345;-68
2021/11/15 12:24:16;;;;;;;47.83;43.03;;;;;;;;;;6229513;23;20026;-68
2021/11/15 12:26:45;;;;;;;70.80;63.70;;;;;;;;;;6230840;23;19997;-68
2021/11/15 12:29:31;;;;;;;21.75;19.65;;;;;;;;;;6230612;23;20372;-68
2021/11/15 12:32:00;;;;;;;12.55;11.32;;;;;;;;;;6228455;23;20000;-68
2021/11/15 12:34:28;;;;;;;5.78;4.90;;;;;;;;;;6230835;23;20007;-70
2021/11/15 12:36:55;;;;;;;13.15;11.88;;;;;;;;;;6229953;23;20479;-68
2021/11/15 12:39:26;;;;;;;6.13;5.53;;;;;;;;;;6230267;23;20066;-68
2021/11/15 12:41:57;;;;;;;3.20;2.10;;;;;;;;;;6228682;23;20035;-73
2021/11/15 12:44:33;;;;;;;3.03;1.85;;;;;;;;;;6228163;23;20008;-69
2021/11/15 12:47:04;;;;;;;2.28;1.45;;;;;;;;;;6229568;23;20507;-68
2021/11/15 12:49:32;;;;;;;3.60;2.33;;;;;;;;;;6230922;23;20388;-68
2021/11/15 12:52:12;;;;;;;3.78;2.38;;;;;;;;;;6230458;23;20011;-68
2021/11/15 12:54:39;;;;;;;5.00;2.63;;;;;;;;;;6231862;23;20080;-70
2021/11/15 12:57:06;;;;;;;6.00;3.45;;;;;;;;;;6230083;23;20000;-69
2021/11/15 12:59:33;;;;;;;4.20;2.40;;;;;;;;;;6230445;23;20056;-68
2021/11/15 13:02:00;;;;;;;5.68;3.53;;;;;;;;;;6227940;23;20008;-68
2021/11/15 13:04:26;;;;;;;28.73;26.20;;;;;;;;;;6230744;23;20080;-68
2021/11/15 13:06:52;;;;;;;33.38;30.15;;;;;;;;;;6229169;23;20071;-69
2021/11/15 13:09:19;;;;;;;10.30;7.60;;;;;;;;;;6228374;23;20008;-69
2021/11/15 13:11:45;;;;;;;4.40;2.58;;;;;;;;;;6229941;23;19992;-74
2021/11/15 13:14:12;;;;;;;3.25;1.75;;;;;;;;;;6229708;23;20043;-68
2021/11/15 13:16:39;;;;;;;4.22;1.85;;;;;;;;;;6230250;23;20015;-68
2021/11/15 13:19:06;;;;;;;4.70;2.17;;;;;;;;;;6229629;23;20511;-71
2021/11/15 13:21:32;;;;;;;5.30;3.75;;;;;;;;;;6229160;23;20086;-77
2021/11/15 13:23:59;;;;;;;6.57;5.10;;;;;;;;;;6228308;23;20015;-67
2021/11/15 13:26:25;;;;;;;4.57;3.78;;;;;;;;;;6230048;23;20003;-70
2021/11/15 13:28:51;;;;;;;5.18;3.03;;;;;;;;;;6229708;23;20084;-76
2021/11/15 13:31:17;;;;;;;4.72;2.80;;;;;;;;;;6227430;23;20008;-68
2021/11/15 13:33:43;;;;;;;3.58;2.58;;;;;;;;;;6230383;23;20083;-70
2021/11/15 13:36:10;;;;;;;4.28;2.85;;;;;;;;;;6230377;23;20018;-68
2021/11/15 13:38:38;;;;;;;5.85;3.00;;;;;;;;;;6228287;23;20040;-68
2021/11/15 13:41:05;;;;;;;5.43;2.30;;;;;;;;;;6228677;23;20004;-68
2021/11/15 13:43:31;;;;;;;5.85;3.58;;;;;;;;;;6227146;23;20012;-68
2021/11/15 13:45:58;;;;;;;6.50;4.38;;;;;;;;;;6229263;23;20000;-68
2021/11/15 13:48:24;;;;;;;7.15;4.03;;;;;;;;;;6229561;23;20015;-73
2021/11/15 13:50:51;;;;;;;7.88;4.57;;;;;;;;;;6228014;23;20011;-70
2021/11/15 13:53:18;;;;;;;6.20;4.10;;;;;;;;;;6229665;23;20023;-68
2021/11/15 13:55:45;;;;;;;6.93;3.92;;;;;;;;;;6229359;23;20003;-71
2021/11/15 13:58:13;;;;;;;5.47;4.10;;;;;;;;;;6229947;23;20012;-75
2021/11/15 14:00:39;;;;;;;9.00;5.57;;;;;;;;;;6228328;23;20024;-69
2021/11/15 14:03:05;;;;;;;14.95;9.57;;;;;;;;;;6226760;23;20031;-70
2021/11/15 14:05:33;;;;;;;14.93;12.90;;;;;;;;;;6229763;23;20074;-68
2021/11/15 14:07:59;;;;;;;10.32;9.05;;;;;;;;;;6229101;23;20411;-74
2021/11/15 14:10:26;;;;;;;13.93;9.93;;;;;;;;;;6229646;23;20000;-69
2021/11/15 14:12:52;;;;;;;8.68;5.97;;;;;;;;;;6229458;23;20004;-68
2021/11/15 14:15:18;;;;;;;4.45;3.30;;;;;;;;;;6229852;23;20007;-76
2021/11/15 14:17:44;;;;;;;6.13;3.22;;;;;;;;;;6227780;23;20020;-72
2021/11/15 14:20:11;;;;;;;6.57;3.72;;;;;;;;;;6230146;23;20038;-68
2021/11/15 14:22:38;;;;;;;5.45;3.60;;;;;;;;;;6229681;23;20496;-68
2021/11/15 14:25:07;;;;;;;4.35;2.70;;;;;;;;;;6230352;23;20034;-69
2021/11/15 14:27:34;;;;;;;8.07;2.72;;;;;;;;;;6227512;23;20000;-68
2021/11/15 14:30:00;;;;;;;7.65;2.75;;;;;;;;;;6229455;23;20058;-69
2021/11/15 14:32:29;;;;;;;4.78;2.55;;;;;;;;;;6229472;23;20083;-72
2021/11/15 14:34:56;;;;;;;3.40;2.40;;;;;;;;;;6229492;23;20000;-68
2021/11/15 14:37:22;;;;;;;3.80;2.15;;;;;;;;;;6226358;23;20000;-68
2021/11/15 14:39:49;;;;;;;4.68;2.20;;;;;;;;;;6229413;23;20032;-71
2021/11/15 14:42:15;;;;;;;4.43;2.00;;;;;;;;;;6228802;23;20075;-70
2021/11/15 14:44:42;;;;;;;12.82;2.75;;;;;;;;;;6230104;23;20000;-72